Time;durP1;ratioP1;P1;durP2;ratioP2;P2;SDS_P1;SDS_P2;PMS_P1;PMS_P2;Temp;Humidity;BMP_temperature;BMP_pressure;BME280_temperature;BME280_humidity;BME280_pressure;Samples;Min_cycle;Max_cycle;Signal;HPM_P1;HPM_P2
2021/03/06 00:02:05;;;;;;;10.00;2.65;;;;;;;;;;5027697;28;20042;-61
2021/03/06 00:04:31;;;;;;;8.13;2.58;;;;;;;;;;5027296;28;20045;-60
2021/03/06 00:06:58;;;;;;;7.10;2.35;;;;;;;;;;5005630;28;20038;-60
2021/03/06 00:09:25;;;;;;;12.95;2.47;;;;;;;;;;5003372;28;20186;-61
2021/03/06 00:11:52;;;;;;;8.07;2.67;;;;;;;;;;5007496;28;20038;-61
2021/03/06 00:14:18;;;;;;;9.35;2.80;;;;;;;;;;5019880;28;20048;-60
2021/03/06 00:16:44;;;;;;;10.13;2.90;;;;;;;;;;5007084;28;20046;-60
2021/03/06 00:19:10;;;;;;;13.43;3.05;;;;;;;;;;4984371;28;20042;-60
2021/03/06 00:21:36;;;;;;;9.63;3.10;;;;;;;;;;4986668;28;20058;-60
2021/03/06 00:24:02;;;;;;;13.13;4.03;;;;;;;;;;5006010;28;20089;-60
2021/03/06 00:26:28;;;;;;;12.15;3.70;;;;;;;;;;5045380;28;20052;-61
2021/03/06 00:28:55;;;;;;;8.45;3.17;;;;;;;;;;5044176;28;20041;-60
2021/03/06 00:31:21;;;;;;;7.70;2.85;;;;;;;;;;5041238;28;20034;-60
2021/03/06 00:33:47;;;;;;;6.72;2.35;;;;;;;;;;5028184;28;20033;-60
2021/03/06 00:36:13;;;;;;;11.05;2.67;;;;;;;;;;5041487;28;20049;-62
2021/03/06 00:38:39;;;;;;;9.10;2.55;;;;;;;;;;5044756;28;20029;-61
2021/03/06 00:41:05;;;;;;;7.03;2.53;;;;;;;;;;5040614;28;20090;-60
2021/03/06 00:43:31;;;;;;;8.50;3.00;;;;;;;;;;5008309;28;20037;-61
2021/03/06 00:45:58;;;;;;;10.23;2.80;;;;;;;;;;5003570;28;20044;-61
2021/03/06 00:48:24;;;;;;;14.60;2.95;;;;;;;;;;5006892;28;20036;-62
2021/03/06 00:50:50;;;;;;;10.15;2.88;;;;;;;;;;5003079;28;20033;-61
2021/03/06 00:53:16;;;;;;;9.30;3.10;;;;;;;;;;5021483;28;20057;-61
2021/03/06 00:55:42;;;;;;;6.32;2.63;;;;;;;;;;5009448;28;20045;-60
2021/03/06 00:58:08;;;;;;;9.40;2.67;;;;;;;;;;5025759;28;20052;-62
2021/03/06 01:00:34;;;;;;;7.82;2.58;;;;;;;;;;5021604;28;20062;-60
2021/03/06 01:03:01;;;;;;;6.40;2.50;;;;;;;;;;5042775;28;20115;-61
2021/03/06 01:05:27;;;;;;;7.05;2.50;;;;;;;;;;5038095;28;20052;-60
2021/03/06 01:07:53;;;;;;;8.13;2.60;;;;;;;;;;5003648;28;20052;-60
2021/03/06 01:10:20;;;;;;;13.10;3.05;;;;;;;;;;5003303;28;20038;-61
2021/03/06 01:12:46;;;;;;;10.07;2.45;;;;;;;;;;5036495;28;20056;-61
2021/03/06 01:15:12;;;;;;;9.40;2.95;;;;;;;;;;5044022;28;20171;-61
2021/03/06 01:17:38;;;;;;;11.75;3.60;;;;;;;;;;5023091;28;20131;-61
2021/03/06 01:20:06;;;;;;;8.02;2.65;;;;;;;;;;5019783;28;20041;-61
2021/03/06 01:22:33;;;;;;;10.07;3.30;;;;;;;;;;5009224;28;20049;-61
2021/03/06 01:24:59;;;;;;;8.38;2.97;;;;;;;;;;5027988;28;20049;-61
2021/03/06 01:27:24;;;;;;;8.40;2.70;;;;;;;;;;5014030;28;20053;-61
2021/03/06 01:29:51;;;;;;;10.75;2.80;;;;;;;;;;5023660;28;20044;-62
2021/03/06 01:32:17;;;;;;;6.00;2.75;;;;;;;;;;5009742;28;20041;-60
2021/03/06 01:34:43;;;;;;;7.90;2.60;;;;;;;;;;5026325;28;20044;-62
2021/03/06 01:37:10;;;;;;;10.73;2.97;;;;;;;;;;5040737;28;20041;-61
2021/03/06 01:39:37;;;;;;;5.68;2.28;;;;;;;;;;5026877;28;20093;-62
2021/03/06 01:42:03;;;;;;;14.00;3.40;;;;;;;;;;5033668;28;20122;-60
2021/03/06 01:44:29;;;;;;;8.02;3.03;;;;;;;;;;5010912;28;20049;-61
2021/03/06 01:46:55;;;;;;;10.30;3.17;;;;;;;;;;5023531;28;20123;-62
2021/03/06 01:49:22;;;;;;;11.88;3.15;;;;;;;;;;5002094;28;20052;-61
2021/03/06 01:51:48;;;;;;;12.05;3.10;;;;;;;;;;5007042;28;20033;-62
2021/03/06 01:54:16;;;;;;;10.63;3.25;;;;;;;;;;5003864;28;20041;-63
2021/03/06 01:56:42;;;;;;;7.57;2.88;;;;;;;;;;5027187;28;20030;-62
2021/03/06 01:59:09;;;;;;;8.73;2.53;;;;;;;;;;5036849;28;20037;-60
2021/03/06 02:01:35;;;;;;;10.98;2.88;;;;;;;;;;5041107;28;20025;-61
2021/03/06 02:04:01;;;;;;;9.10;2.90;;;;;;;;;;5020656;28;20040;-61
2021/03/06 02:06:27;;;;;;;9.45;3.22;;;;;;;;;;5022890;28;20064;-61
2021/03/06 02:08:54;;;;;;;8.30;3.30;;;;;;;;;;5011697;28;20177;-61
2021/03/06 02:11:28;;;;;;;5.95;2.53;;;;;;;;;;5003539;28;20053;-62
2021/03/06 02:13:59;;;;;;;11.40;2.50;;;;;;;;;;4999028;28;20173;-62
2021/03/06 02:16:30;;;;;;;14.85;2.90;;;;;;;;;;5001413;28;20038;-61
2021/03/06 02:18:58;;;;;;;8.10;2.90;;;;;;;;;;5003537;28;20033;-62
2021/03/06 02:21:34;;;;;;;10.57;3.00;;;;;;;;;;5020924;28;20041;-61
2021/03/06 02:24:18;;;;;;;6.30;2.63;;;;;;;;;;5017192;28;20061;-62
2021/03/06 02:26:55;;;;;;;9.82;2.95;;;;;;;;;;5023914;28;20138;-63
2021/03/06 02:29:39;;;;;;;9.13;3.17;;;;;;;;;;5012654;28;20034;-62
2021/03/06 02:32:08;;;;;;;11.50;3.15;;;;;;;;;;5001062;28;20057;-62
2021/03/06 02:34:35;;;;;;;7.53;2.83;;;;;;;;;;5005354;28;20033;-61
2021/03/06 02:37:05;;;;;;;11.48;3.33;;;;;;;;;;5021077;28;20160;-62
2021/03/06 02:39:32;;;;;;;12.10;3.08;;;;;;;;;;5017893;28;20038;-62
2021/03/06 02:41:58;;;;;;;11.10;3.03;;;;;;;;;;5015336;28;20038;-62
2021/03/06 02:44:26;;;;;;;13.20;3.25;;;;;;;;;;4984016;28;20073;-63
2021/03/06 02:46:53;;;;;;;9.27;2.88;;;;;;;;;;5002821;28;20050;-62
2021/03/06 02:49:19;;;;;;;9.05;3.08;;;;;;;;;;5002001;28;20058;-62
2021/03/06 02:51:47;;;;;;;8.27;3.40;;;;;;;;;;5017427;28;20050;-62
2021/03/06 02:54:13;;;;;;;9.55;3.28;;;;;;;;;;5021909;28;20135;-62
2021/03/06 02:56:39;;;;;;;10.25;3.35;;;;;;;;;;5003206;28;20054;-61
2021/03/06 02:59:12;;;;;;;8.98;3.20;;;;;;;;;;4994297;28;20043;-62
2021/03/06 03:01:43;;;;;;;11.75;3.05;;;;;;;;;;4995146;28;20061;-62
2021/03/06 03:04:14;;;;;;;7.78;3.17;;;;;;;;;;5000777;28;20052;-62
2021/03/06 03:06:43;;;;;;;10.77;2.85;;;;;;;;;;5011184;28;20049;-62
2021/03/06 03:09:12;;;;;;;10.30;3.13;;;;;;;;;;5021132;28;20040;-62
2021/03/06 03:11:40;;;;;;;8.60;3.15;;;;;;;;;;5017867;28;20123;-62
2021/03/06 03:14:07;;;;;;;8.98;3.00;;;;;;;;;;5023228;28;20041;-62
2021/03/06 03:16:35;;;;;;;5.63;2.97;;;;;;;;;;5008859;28;20061;-61
2021/03/06 03:19:13;;;;;;;7.77;2.70;;;;;;;;;;4998165;28;20045;-60
2021/03/06 03:21:43;;;;;;;8.80;2.90;;;;;;;;;;4995653;28;20283;-60
2021/03/06 03:24:12;;;;;;;8.77;2.95;;;;;;;;;;5020690;28;20124;-61
2021/03/06 03:26:39;;;;;;;7.53;2.85;;;;;;;;;;5012933;28;20034;-59
2021/03/06 03:29:07;;;;;;;12.75;2.92;;;;;;;;;;5001788;28;20034;-60
2021/03/06 03:31:35;;;;;;;8.63;3.10;;;;;;;;;;5003265;28;20050;-62
2021/03/06 03:34:02;;;;;;;9.73;2.90;;;;;;;;;;5021629;28;20038;-61
2021/03/06 03:36:30;;;;;;;10.40;2.72;;;;;;;;;;5015687;28;20038;-62
2021/03/06 03:38:57;;;;;;;9.18;2.92;;;;;;;;;;5001808;28;20034;-59
2021/03/06 03:41:23;;;;;;;8.75;3.15;;;;;;;;;;5001178;28;20132;-60
2021/03/06 03:43:49;;;;;;;7.82;2.70;;;;;;;;;;4998189;28;20057;-60
2021/03/06 03:46:15;;;;;;;6.57;2.70;;;;;;;;;;5001094;28;20031;-60
2021/03/06 03:48:43;;;;;;;12.90;3.10;;;;;;;;;;4999728;28;20038;-60
2021/03/06 03:51:09;;;;;;;9.73;2.65;;;;;;;;;;5001511;28;20057;-60
2021/03/06 03:53:36;;;;;;;6.70;2.63;;;;;;;;;;4997191;28;20057;-60
2021/03/06 03:56:02;;;;;;;11.18;2.90;;;;;;;;;;5001945;28;20050;-59
2021/03/06 03:58:28;;;;;;;9.30;2.97;;;;;;;;;;4997995;28;20042;-60
2021/03/06 04:00:59;;;;;;;9.73;2.97;;;;;;;;;;5001080;28;20042;-62
2021/03/06 04:03:28;;;;;;;8.10;2.83;;;;;;;;;;5006754;28;20057;-60
2021/03/06 04:05:55;;;;;;;11.45;2.70;;;;;;;;;;5019192;28;20038;-62
2021/03/06 04:08:21;;;;;;;7.00;2.78;;;;;;;;;;5011082;28;20069;-61
2021/03/06 04:10:48;;;;;;;6.43;2.70;;;;;;;;;;5001038;28;20049;-60
2021/03/06 04:13:14;;;;;;;10.02;2.70;;;;;;;;;;5003626;28;20034;-60
2021/03/06 04:15:40;;;;;;;8.25;2.70;;;;;;;;;;5023029;28;20045;-62
2021/03/06 04:18:06;;;;;;;9.63;3.20;;;;;;;;;;5013796;28;20052;-62
2021/03/06 04:20:34;;;;;;;10.45;3.10;;;;;;;;;;5001183;28;20057;-61
2021/03/06 04:23:00;;;;;;;10.32;3.00;;;;;;;;;;5000972;28;20089;-62
2021/03/06 04:25:26;;;;;;;11.45;3.53;;;;;;;;;;5000522;28;20046;-61
2021/03/06 04:27:53;;;;;;;7.10;2.70;;;;;;;;;;5001900;28;20038;-61
2021/03/06 04:30:20;;;;;;;8.98;3.17;;;;;;;;;;5012541;28;20049;-61
2021/03/06 04:32:46;;;;;;;18.50;3.25;;;;;;;;;;5020948;28;20057;-62
2021/03/06 04:35:13;;;;;;;9.32;3.05;;;;;;;;;;5002715;28;20095;-60
2021/03/06 04:37:39;;;;;;;8.98;3.08;;;;;;;;;;5001364;28;20042;-62
2021/03/06 04:40:09;;;;;;;9.48;2.80;;;;;;;;;;4998593;28;20058;-62
2021/03/06 04:42:35;;;;;;;10.95;2.83;;;;;;;;;;5003146;28;20042;-61
2021/03/06 04:45:02;;;;;;;8.95;2.67;;;;;;;;;;5002017;28;20041;-61
2021/03/06 04:47:28;;;;;;;7.30;2.50;;;;;;;;;;5023533;28;20077;-62
2021/03/06 04:49:55;;;;;;;10.25;2.78;;;;;;;;;;5013752;28;20045;-63
2021/03/06 04:52:21;;;;;;;6.10;2.47;;;;;;;;;;5003407;28;20090;-61
2021/03/06 04:54:46;;;;;;;8.98;2.53;;;;;;;;;;5002762;28;20033;-62
2021/03/06 04:57:13;;;;;;;9.52;2.67;;;;;;;;;;5023621;28;20148;-61
2021/03/06 04:59:41;;;;;;;7.45;2.95;;;;;;;;;;5017877;28;20041;-62
2021/03/06 05:02:08;;;;;;;8.52;2.55;;;;;;;;;;5002536;28;20144;-62
2021/03/06 05:04:34;;;;;;;6.22;2.10;;;;;;;;;;5005907;28;20042;-60
2021/03/06 05:07:00;;;;;;;11.55;2.92;;;;;;;;;;5036747;28;20045;-61
2021/03/06 05:09:30;;;;;;;7.60;2.60;;;;;;;;;;5026153;28;20077;-60
2021/03/06 05:11:56;;;;;;;10.23;2.67;;;;;;;;;;5021751;28;20042;-60
2021/03/06 05:14:22;;;;;;;6.57;2.33;;;;;;;;;;5024309;28;20051;-62
2021/03/06 05:16:48;;;;;;;4.78;2.05;;;;;;;;;;5004085;28;20049;-62
2021/03/06 05:19:15;;;;;;;7.10;2.30;;;;;;;;;;4992376;28;20056;-61
2021/03/06 05:21:41;;;;;;;9.23;2.63;;;;;;;;;;4993821;28;20044;-62
2021/03/06 05:24:07;;;;;;;7.65;2.55;;;;;;;;;;5022902;28;20100;-62
2021/03/06 05:26:33;;;;;;;11.63;2.92;;;;;;;;;;5029600;28;20041;-62
2021/03/06 05:29:00;;;;;;;7.57;2.75;;;;;;;;;;5042614;28;20043;-61
2021/03/06 05:31:26;;;;;;;8.45;2.97;;;;;;;;;;5021653;28;20118;-62
2021/03/06 05:33:52;;;;;;;9.55;2.42;;;;;;;;;;5027622;28;20029;-62
2021/03/06 05:36:21;;;;;;;10.88;3.25;;;;;;;;;;5039903;28;20123;-62
2021/03/06 05:38:54;;;;;;;6.05;2.25;;;;;;;;;;5042682;28;20051;-62
2021/03/06 05:41:28;;;;;;;11.52;2.80;;;;;;;;;;5021672;28;20093;-63
2021/03/06 05:43:57;;;;;;;4.35;2.03;;;;;;;;;;5014266;28;20034;-62
2021/03/06 05:46:23;;;;;;;6.30;2.08;;;;;;;;;;5003498;28;20052;-61
2021/03/06 05:48:52;;;;;;;8.30;2.40;;;;;;;;;;5004771;28;20042;-62
2021/03/06 05:51:20;;;;;;;6.55;2.38;;;;;;;;;;5005806;28;20049;-62
2021/03/06 05:53:49;;;;;;;11.20;2.30;;;;;;;;;;5017679;28;20064;-62
2021/03/06 05:56:15;;;;;;;7.30;2.40;;;;;;;;;;5025350;28;20052;-62
2021/03/06 05:58:43;;;;;;;9.73;2.92;;;;;;;;;;5021056;28;20086;-62
2021/03/06 06:01:13;;;;;;;5.88;2.25;;;;;;;;;;5043179;28;20069;-61
2021/03/06 06:03:40;;;;;;;6.82;2.22;;;;;;;;;;5008663;28;20033;-62
2021/03/06 06:06:06;;;;;;;7.90;2.63;;;;;;;;;;5023338;28;20042;-62
2021/03/06 06:08:34;;;;;;;7.32;2.20;;;;;;;;;;5029893;28;20093;-60
2021/03/06 06:11:00;;;;;;;4.68;2.05;;;;;;;;;;5026041;28;20045;-59
2021/03/06 06:13:26;;;;;;;7.20;2.28;;;;;;;;;;5039970;28;20045;-60
2021/03/06 06:15:56;;;;;;;11.50;2.00;;;;;;;;;;5042237;28;20053;-60
2021/03/06 06:18:22;;;;;;;5.07;1.77;;;;;;;;;;5013173;28;20111;-62
2021/03/06 06:20:51;;;;;;;4.15;1.60;;;;;;;;;;5006376;28;20061;-62
2021/03/06 06:23:18;;;;;;;5.18;1.70;;;;;;;;;;5022515;28;20044;-61
2021/03/06 06:25:45;;;;;;;5.80;1.70;;;;;;;;;;5043014;28;20077;-62
2021/03/06 06:28:14;;;;;;;3.03;1.38;;;;;;;;;;5038178;28;20033;-62
2021/03/06 06:30:42;;;;;;;6.25;1.70;;;;;;;;;;5023600;28;20119;-62
2021/03/06 06:33:13;;;;;;;7.22;1.42;;;;;;;;;;5022916;28;20033;-61
2021/03/06 06:35:44;;;;;;;3.22;1.50;;;;;;;;;;5004889;28;20051;-62
2021/03/06 06:38:10;;;;;;;7.57;2.08;;;;;;;;;;5005452;28;20042;-61
2021/03/06 06:40:37;;;;;;;6.25;2.30;;;;;;;;;;5019121;28;20156;-63
2021/03/06 06:43:18;;;;;;;7.72;2.05;;;;;;;;;;4997432;28;20022;-61
2021/03/06 06:45:44;;;;;;;6.88;2.22;;;;;;;;;;5013269;28;20050;-61
2021/03/06 06:48:11;;;;;;;4.65;1.70;;;;;;;;;;5004642;28;20038;-62
2021/03/06 06:50:38;;;;;;;7.57;2.15;;;;;;;;;;4994084;28;20053;-61
2021/03/06 06:53:04;;;;;;;5.60;1.88;;;;;;;;;;4996009;28;20051;-62
2021/03/06 06:55:34;;;;;;;7.95;1.70;;;;;;;;;;4991858;28;20038;-62
2021/03/06 06:58:00;;;;;;;7.18;2.30;;;;;;;;;;4998461;28;20041;-61
2021/03/06 07:00:28;;;;;;;6.00;2.20;;;;;;;;;;4990065;28;20073;-62
2021/03/06 07:02:56;;;;;;;6.10;2.40;;;;;;;;;;4993413;28;20042;-62
2021/03/06 07:05:26;;;;;;;13.27;2.13;;;;;;;;;;4989716;28;20034;-62
2021/03/06 07:07:52;;;;;;;4.97;2.00;;;;;;;;;;4993858;28;20285;-62
2021/03/06 07:10:19;;;;;;;12.23;2.55;;;;;;;;;;5008407;28;20056;-62
2021/03/06 07:12:46;;;;;;;14.70;2.72;;;;;;;;;;4997691;28;20042;-62
2021/03/06 07:15:14;;;;;;;7.45;2.33;;;;;;;;;;4984208;28;20046;-61
2021/03/06 07:17:40;;;;;;;8.57;2.85;;;;;;;;;;5009912;28;20038;-61
2021/03/06 07:20:09;;;;;;;6.78;2.60;;;;;;;;;;4993673;28;20152;-59
2021/03/06 07:22:35;;;;;;;10.30;2.88;;;;;;;;;;5014186;28;20040;-62
2021/03/06 07:25:02;;;;;;;7.72;2.80;;;;;;;;;;4994080;28;20045;-61
2021/03/06 07:27:28;;;;;;;7.07;2.70;;;;;;;;;;4994186;28;20053;-60
2021/03/06 07:29:54;;;;;;;7.57;2.80;;;;;;;;;;4995986;28;20029;-60
2021/03/06 07:32:23;;;;;;;6.65;2.38;;;;;;;;;;4991435;28;20038;-60
2021/03/06 07:34:49;;;;;;;11.02;2.80;;;;;;;;;;4993044;28;20050;-61
2021/03/06 07:37:16;;;;;;;10.32;3.20;;;;;;;;;;4994564;28;20034;-62
2021/03/06 07:39:43;;;;;;;7.93;2.72;;;;;;;;;;4992967;28;20053;-62
2021/03/06 07:42:18;;;;;;;11.48;2.80;;;;;;;;;;4991636;28;20104;-62
2021/03/06 07:44:44;;;;;;;9.98;2.58;;;;;;;;;;4993264;28;20112;-62
2021/03/06 07:47:11;;;;;;;12.15;2.67;;;;;;;;;;4992405;28;20045;-62
2021/03/06 07:49:38;;;;;;;9.82;2.92;;;;;;;;;;4995588;28;20042;-62
2021/03/06 07:52:04;;;;;;;13.00;2.45;;;;;;;;;;4994500;28;20026;-62
2021/03/06 07:54:33;;;;;;;9.60;2.40;;;;;;;;;;4993654;28;20084;-62
2021/03/06 07:56:59;;;;;;;11.52;2.38;;;;;;;;;;5009843;28;20052;-62
2021/03/06 07:59:47;;;;;;;9.20;2.78;;;;;;;;;;5011688;28;20042;-61
2021/03/06 08:02:34;;;;;;;9.73;2.50;;;;;;;;;;4990022;28;20046;-62
2021/03/06 08:05:01;;;;;;;6.30;2.55;;;;;;;;;;5000634;28;20123;-62
2021/03/06 08:07:38;;;;;;;10.40;2.95;;;;;;;;;;4991988;28;20124;-62
2021/03/06 08:10:06;;;;;;;11.07;4.03;;;;;;;;;;4991267;28;20058;-63
2021/03/06 08:12:32;;;;;;;23.35;5.30;;;;;;;;;;4993032;28;20037;-62
2021/03/06 08:14:59;;;;;;;16.58;5.00;;;;;;;;;;4993763;28;20042;-61
2021/03/06 08:17:32;;;;;;;9.23;3.85;;;;;;;;;;4986240;28;20040;-62
2021/03/06 08:20:01;;;;;;;6.03;2.63;;;;;;;;;;5023965;28;20121;-62
2021/03/06 08:22:27;;;;;;;10.18;2.80;;;;;;;;;;5022600;28;20050;-62
2021/03/06 08:24:53;;;;;;;9.77;3.47;;;;;;;;;;5005607;28;20056;-61
2021/03/06 08:27:21;;;;;;;8.38;2.80;;;;;;;;;;5003643;28;20031;-62
2021/03/06 08:29:51;;;;;;;6.22;2.30;;;;;;;;;;5000667;28;20046;-61
2021/03/06 08:32:26;;;;;;;7.78;2.72;;;;;;;;;;5024780;28;20026;-62
2021/03/06 08:34:53;;;;;;;11.73;2.17;;;;;;;;;;5019738;28;20034;-62
2021/03/06 08:37:35;;;;;;;9.10;2.40;;;;;;;;;;5044086;28;20045;-61
2021/03/06 08:40:05;;;;;;;5.03;2.15;;;;;;;;;;5021280;28;20046;-62
2021/03/06 08:42:37;;;;;;;9.23;2.47;;;;;;;;;;5014742;28;20061;-62
2021/03/06 08:45:07;;;;;;;6.60;2.15;;;;;;;;;;5028493;28;20044;-62
2021/03/06 08:47:35;;;;;;;7.43;2.70;;;;;;;;;;5047669;28;20118;-61
2021/03/06 08:50:01;;;;;;;12.50;3.10;;;;;;;;;;5011156;28;20033;-60
2021/03/06 08:52:28;;;;;;;10.20;2.65;;;;;;;;;;5024373;28;20045;-59
2021/03/06 08:54:56;;;;;;;12.50;2.65;;;;;;;;;;5020265;28;20037;-62
2021/03/06 08:57:23;;;;;;;9.23;2.40;;;;;;;;;;5005105;28;20045;-60
2021/03/06 08:59:51;;;;;;;6.30;2.58;;;;;;;;;;5008408;28;20043;-60
2021/03/06 09:02:17;;;;;;;8.27;2.60;;;;;;;;;;5024460;28;20041;-62
2021/03/06 09:04:43;;;;;;;11.88;2.80;;;;;;;;;;5037691;28;20056;-60
2021/03/06 09:07:10;;;;;;;10.18;2.53;;;;;;;;;;5024831;28;20102;-61
2021/03/06 09:09:37;;;;;;;5.70;2.33;;;;;;;;;;5036739;28;20034;-62
2021/03/06 09:12:04;;;;;;;7.85;2.20;;;;;;;;;;5024914;28;20057;-62
2021/03/06 09:14:30;;;;;;;5.57;1.50;;;;;;;;;;5021489;28;20033;-61
2021/03/06 09:16:57;;;;;;;7.20;1.52;;;;;;;;;;5029467;28;20099;-61
2021/03/06 09:19:23;;;;;;;5.45;1.50;;;;;;;;;;5027397;28;20037;-61
2021/03/06 09:21:56;;;;;;;7.60;1.70;;;;;;;;;;5038643;28;20037;-62
2021/03/06 09:24:22;;;;;;;9.05;1.77;;;;;;;;;;5044699;28;20034;-62
2021/03/06 09:26:50;;;;;;;8.73;2.80;;;;;;;;;;5021067;28;20069;-62
2021/03/06 09:29:17;;;;;;;5.05;1.02;;;;;;;;;;5010602;28;20038;-62
2021/03/06 09:31:43;;;;;;;0.68;0.47;;;;;;;;;;5016908;28;20037;-61
2021/03/06 09:34:09;;;;;;;0.75;0.38;;;;;;;;;;5008594;28;20124;-61
2021/03/06 09:44:21;;;;;;;5.32;0.55;;;;;;;;;;5380768;23;20037;-63
2021/03/06 09:46:47;;;;;;;3.35;0.47;;;;;;;;;;5016946;28;20037;-63
2021/03/06 09:49:14;;;;;;;4.45;0.75;;;;;;;;;;5047420;28;20051;-63
2021/03/06 09:51:41;;;;;;;1.10;0.32;;;;;;;;;;5058844;28;20040;-64
2021/03/06 09:54:08;;;;;;;1.13;0.30;;;;;;;;;;5062301;28;20037;-64
2021/03/06 09:56:34;;;;;;;4.78;0.80;;;;;;;;;;5059819;28;20048;-65
2021/03/06 09:59:01;;;;;;;0.47;0.30;;;;;;;;;;5026681;28;20037;-65
2021/03/06 10:01:28;;;;;;;1.50;0.60;;;;;;;;;;5026927;28;20041;-65
2021/03/06 10:03:54;;;;;;;3.17;0.50;;;;;;;;;;5023570;28;20057;-64
2021/03/06 10:06:22;;;;;;;1.17;0.20;;;;;;;;;;5026143;28;20048;-66
2021/03/06 10:08:50;;;;;;;4.85;0.47;;;;;;;;;;5023264;28;20037;-66
2021/03/06 10:11:17;;;;;;;4.18;0.50;;;;;;;;;;5026838;28;20030;-67
2021/03/06 10:13:44;;;;;;;2.08;0.50;;;;;;;;;;5023954;28;20048;-64
2021/03/06 10:16:10;;;;;;;2.28;0.38;;;;;;;;;;5026502;28;20065;-67
2021/03/06 10:18:37;;;;;;;2.92;0.60;;;;;;;;;;5039973;28;20404;-67
2021/03/06 10:21:09;;;;;;;1.88;0.50;;;;;;;;;;5025934;28;20056;-66
2021/03/06 10:23:36;;;;;;;3.25;0.68;;;;;;;;;;5048759;28;20051;-67
2021/03/06 10:26:15;;;;;;;2.40;0.43;;;;;;;;;;5046233;28;20044;-67
2021/03/06 10:28:42;;;;;;;2.40;0.52;;;;;;;;;;5049470;28;20037;-67
2021/03/06 10:31:23;;;;;;;0.85;0.40;;;;;;;;;;5025856;28;20041;-65
2021/03/06 10:33:49;;;;;;;0.82;0.43;;;;;;;;;;5040864;28;20049;-65
2021/03/06 10:36:15;;;;;;;3.10;0.32;;;;;;;;;;5027243;28;20044;-66
2021/03/06 10:38:42;;;;;;;4.38;0.50;;;;;;;;;;5040319;28;20029;-64
2021/03/06 10:41:15;;;;;;;3.17;0.32;;;;;;;;;;5024054;28;20036;-67
2021/03/06 10:43:43;;;;;;;4.03;0.47;;;;;;;;;;5004296;28;20069;-66
2021/03/06 10:46:09;;;;;;;0.47;0.30;;;;;;;;;;4981844;28;20050;-66
2021/03/06 10:48:35;;;;;;;3.00;0.57;;;;;;;;;;4977531;28;20042;-60
2021/03/06 10:51:02;;;;;;;3.20;0.32;;;;;;;;;;4982206;28;20038;-64
2021/03/06 10:53:28;;;;;;;4.38;0.63;;;;;;;;;;4982678;28;20046;-65
2021/03/06 10:55:55;;;;;;;1.52;0.40;;;;;;;;;;4978890;28;20050;-61
2021/03/06 10:58:33;;;;;;;0.50;0.28;;;;;;;;;;4983180;28;20046;-65
2021/03/06 11:00:59;;;;;;;6.10;0.98;;;;;;;;;;4980663;28;20031;-65
2021/03/06 11:03:38;;;;;;;0.60;0.30;;;;;;;;;;4984445;28;20072;-64
2021/03/06 11:06:04;;;;;;;1.40;0.40;;;;;;;;;;4995760;28;20059;-58
2021/03/06 11:08:32;;;;;;;1.60;0.50;;;;;;;;;;5003371;28;20038;-66
2021/03/06 11:10:59;;;;;;;4.40;0.47;;;;;;;;;;4998499;28;20034;-61
2021/03/06 11:13:36;;;;;;;4.80;0.43;;;;;;;;;;5003968;28;20038;-60
2021/03/06 11:16:02;;;;;;;3.03;0.63;;;;;;;;;;4999181;28;20046;-57
2021/03/06 11:18:28;;;;;;;0.47;0.28;;;;;;;;;;5002320;28;20165;-60
2021/03/06 11:20:54;;;;;;;2.53;0.40;;;;;;;;;;4988893;28;20054;-58
2021/03/06 11:23:20;;;;;;;2.13;0.50;;;;;;;;;;4982651;28;20046;-66
2021/03/06 11:25:46;;;;;;;0.57;0.20;;;;;;;;;;4978360;28;20057;-66
2021/03/06 11:28:14;;;;;;;2.08;0.28;;;;;;;;;;4982848;28;20038;-67
2021/03/06 11:30:41;;;;;;;0.70;0.47;;;;;;;;;;4983273;28;20053;-65
2021/03/06 11:33:07;;;;;;;0.60;0.32;;;;;;;;;;5000552;28;20046;-66
2021/03/06 11:35:33;;;;;;;1.13;0.22;;;;;;;;;;4997113;28;20030;-61
2021/03/06 11:37:59;;;;;;;1.50;0.30;;;;;;;;;;4982578;28;20041;-68
2021/03/06 11:40:27;;;;;;;1.40;0.40;;;;;;;;;;4998048;28;20042;-68
2021/03/06 11:42:54;;;;;;;0.75;0.38;;;;;;;;;;4979817;28;20030;-64
2021/03/06 11:45:21;;;;;;;0.88;0.30;;;;;;;;;;5016255;28;20053;-66
2021/03/06 11:47:48;;;;;;;1.17;0.50;;;;;;;;;;5020144;28;20045;-65
2021/03/06 11:50:17;;;;;;;3.95;0.55;;;;;;;;;;5024802;28;20025;-68
2021/03/06 11:52:43;;;;;;;1.80;0.50;;;;;;;;;;5023932;28;20131;-67
2021/03/06 11:55:10;;;;;;;0.30;0.30;;;;;;;;;;5028267;28;20056;-67
2021/03/06 11:57:37;;;;;;;5.10;0.40;;;;;;;;;;5025476;28;20087;-65
2021/03/06 12:00:04;;;;;;;1.00;0.30;;;;;;;;;;5046477;28;20049;-67
2021/03/06 12:02:31;;;;;;;0.22;0.22;;;;;;;;;;5024554;28;20052;-66
2021/03/06 12:04:57;;;;;;;3.45;0.35;;;;;;;;;;5026227;28;20123;-67
2021/03/06 12:07:23;;;;;;;5.40;1.40;;;;;;;;;;5043743;28;20049;-67
2021/03/06 12:09:51;;;;;;;1.55;0.77;;;;;;;;;;5046370;28;20037;-68
2021/03/06 12:12:17;;;;;;;5.80;1.13;;;;;;;;;;5024988;28;20068;-67
2021/03/06 12:14:43;;;;;;;1.50;0.80;;;;;;;;;;5028998;28;20045;-67
2021/03/06 12:17:09;;;;;;;1.23;0.50;;;;;;;;;;5024814;28;20037;-66
2021/03/06 12:19:36;;;;;;;2.10;0.57;;;;;;;;;;5028883;28;20119;-64
2021/03/06 12:22:02;;;;;;;3.55;0.90;;;;;;;;;;5026200;28;20037;-67
2021/03/06 12:24:28;;;;;;;1.67;0.68;;;;;;;;;;5043365;28;20053;-64
2021/03/06 12:26:54;;;;;;;1.38;0.40;;;;;;;;;;5028834;28;20122;-66
2021/03/06 12:29:22;;;;;;;3.78;0.70;;;;;;;;;;5023769;28;20033;-67
2021/03/06 12:31:48;;;;;;;1.60;0.70;;;;;;;;;;4994912;28;20029;-67
2021/03/06 12:34:14;;;;;;;1.85;0.50;;;;;;;;;;5038070;28;20118;-67
2021/03/06 12:36:41;;;;;;;1.98;0.50;;;;;;;;;;5027176;28;20051;-66
2021/03/06 12:39:10;;;;;;;2.28;0.47;;;;;;;;;;5024281;28;20085;-65
2021/03/06 12:41:39;;;;;;;5.80;0.68;;;;;;;;;;5030629;28;20061;-66
2021/03/06 12:44:05;;;;;;;1.77;0.60;;;;;;;;;;5029390;28;20038;-68
2021/03/06 12:46:32;;;;;;;3.03;0.60;;;;;;;;;;5027367;28;20056;-61
2021/03/06 12:48:58;;;;;;;2.72;0.47;;;;;;;;;;5030112;28;20040;-67
2021/03/06 12:51:24;;;;;;;1.02;0.73;;;;;;;;;;5046588;28;20044;-67
2021/03/06 12:53:51;;;;;;;2.22;0.65;;;;;;;;;;5042465;28;20037;-67
2021/03/06 12:56:17;;;;;;;1.90;0.47;;;;;;;;;;5063487;28;20037;-67
2021/03/06 12:58:45;;;;;;;3.78;0.80;;;;;;;;;;5042835;28;20041;-68
2021/03/06 13:01:11;;;;;;;1.33;0.50;;;;;;;;;;5026532;28;20053;-67
2021/03/06 13:03:37;;;;;;;2.33;0.77;;;;;;;;;;5026839;28;20041;-65
2021/03/06 13:06:03;;;;;;;6.43;1.05;;;;;;;;;;5025565;28;20045;-66
2021/03/06 13:08:29;;;;;;;5.55;0.80;;;;;;;;;;5027354;28;20061;-67
2021/03/06 13:10:56;;;;;;;0.55;0.50;;;;;;;;;;5021839;28;20086;-63
2021/03/06 13:13:22;;;;;;;2.25;0.60;;;;;;;;;;5026565;28;20065;-64
2021/03/06 13:15:48;;;;;;;3.72;0.85;;;;;;;;;;5036472;28;20097;-68
2021/03/06 13:18:14;;;;;;;2.22;0.50;;;;;;;;;;5065253;28;20434;-61
2021/03/06 13:20:40;;;;;;;1.60;0.70;;;;;;;;;;5031771;28;20051;-68
2021/03/06 13:23:06;;;;;;;1.85;0.63;;;;;;;;;;5024990;28;20041;-64
2021/03/06 13:25:33;;;;;;;8.38;0.77;;;;;;;;;;5024461;28;20055;-65
2021/03/06 13:27:59;;;;;;;1.10;0.50;;;;;;;;;;5027028;28;20033;-67
2021/03/06 13:30:26;;;;;;;1.70;0.60;;;;;;;;;;5020758;28;20050;-67
2021/03/06 13:32:52;;;;;;;3.35;0.60;;;;;;;;;;5028030;28;20042;-67
2021/03/06 13:35:18;;;;;;;2.83;0.73;;;;;;;;;;5023445;28;20060;-64
2021/03/06 13:37:44;;;;;;;0.65;0.60;;;;;;;;;;5029736;28;20057;-66
2021/03/06 13:40:11;;;;;;;4.35;0.73;;;;;;;;;;5024623;28;20075;-62
2021/03/06 13:42:37;;;;;;;0.98;0.47;;;;;;;;;;5051074;28;20029;-67
2021/03/06 13:45:05;;;;;;;4.38;1.42;;;;;;;;;;5006857;28;20046;-67
2021/03/06 13:47:34;;;;;;;5.80;0.93;;;;;;;;;;5008056;28;20042;-62
2021/03/06 13:50:00;;;;;;;3.33;0.98;;;;;;;;;;5025219;28;20041;-67
2021/03/06 13:52:26;;;;;;;2.33;0.75;;;;;;;;;;5036432;28;20044;-67
2021/03/06 13:54:52;;;;;;;2.72;0.82;;;;;;;;;;5047750;28;20130;-67
2021/03/06 13:57:18;;;;;;;1.08;0.82;;;;;;;;;;5028645;28;20080;-67
2021/03/06 13:59:44;;;;;;;2.22;0.60;;;;;;;;;;5024676;28;20130;-61
2021/03/06 14:02:12;;;;;;;2.05;0.60;;;;;;;;;;5022302;28;20026;-68
2021/03/06 14:04:38;;;;;;;2.03;0.90;;;;;;;;;;5044187;28;20037;-68
2021/03/06 14:07:04;;;;;;;2.15;0.80;;;;;;;;;;5046761;28;20052;-68
2021/03/06 14:09:31;;;;;;;2.63;0.77;;;;;;;;;;5063067;28;20044;-68
2021/03/06 14:11:57;;;;;;;2.85;0.73;;;;;;;;;;5036115;28;20069;-69
2021/03/06 14:14:22;;;;;;;1.58;0.60;;;;;;;;;;5043741;28;20048;-68
2021/03/06 14:16:48;;;;;;;1.38;0.75;;;;;;;;;;5023360;28;20076;-67
2021/03/06 14:19:16;;;;;;;1.42;0.57;;;;;;;;;;5026928;28;20033;-68
2021/03/06 14:21:42;;;;;;;1.37;0.60;;;;;;;;;;5026190;28;20064;-67
2021/03/06 14:24:09;;;;;;;0.77;0.50;;;;;;;;;;5040171;28;20273;-63
2021/03/06 14:26:35;;;;;;;3.25;0.80;;;;;;;;;;5046031;28;20057;-66
2021/03/06 14:29:01;;;;;;;3.55;0.50;;;;;;;;;;5041922;28;20049;-69
2021/03/06 14:31:27;;;;;;;1.15;0.60;;;;;;;;;;5027328;28;20049;-69
2021/03/06 14:33:53;;;;;;;3.35;0.60;;;;;;;;;;5037254;28;20123;-69
2021/03/06 14:36:20;;;;;;;2.17;0.80;;;;;;;;;;5044939;28;20044;-66
2021/03/06 14:41:50;;;;;;;1.35;0.60;;;;;;;;;;5045001;28;20044;-69
2021/03/06 14:44:17;;;;;;;3.03;0.77;;;;;;;;;;5020600;28;20053;-69
2021/03/06 14:46:43;;;;;;;1.23;0.70;;;;;;;;;;5026795;28;20052;-69
2021/03/06 14:49:10;;;;;;;1.95;0.63;;;;;;;;;;5022987;28;20094;-66
2021/03/06 14:51:37;;;;;;;2.08;0.70;;;;;;;;;;5043292;28;20045;-69
2021/03/06 14:54:03;;;;;;;2.22;0.63;;;;;;;;;;5023826;28;20115;-69